createdAt,value
2023-01-04T04:58:30.821Z,2.10
2023-01-04T05:01:17.378Z,2.63
2023-01-04T05:04:04.728Z,3.00
2023-01-04T05:06:52.906Z,3.13
2023-01-04T05:09:38.385Z,3.20
2023-01-04T05:12:42.546Z,3.35
2023-01-04T05:15:31.699Z,3.42
2023-01-04T05:18:19.235Z,3.13
2023-01-04T05:21:06.259Z,3.60
2023-01-04T05:23:52.196Z,2.85
2023-01-04T05:26:38.224Z,3.33
2023-01-04T05:29:42.650Z,3.20
2023-01-04T05:32:28.299Z,2.85
2023-01-04T05:35:14.120Z,3.38
2023-01-04T05:38:01.378Z,3.13
2023-01-04T05:40:47.499Z,3.30
2023-01-04T05:43:33.160Z,3.40
2023-01-04T05:46:18.775Z,4.07
2023-01-04T05:49:04.263Z,3.60
2023-01-04T05:51:49.939Z,3.58
2023-01-04T05:54:36.789Z,3.70
2023-01-04T05:57:22.341Z,3.40
2023-01-04T06:00:10.114Z,3.60
2023-01-04T06:02:58.561Z,3.10
2023-01-04T06:05:48.791Z,3.13
2023-01-04T06:08:34.514Z,2.90
2023-01-04T06:11:27.419Z,2.97
2023-01-04T06:14:13.465Z,3.20
2023-01-04T06:16:59.440Z,3.22
2023-01-04T06:19:45.031Z,2.58
2023-01-04T06:22:30.710Z,3.13
2023-01-04T06:25:17.329Z,3.30
2023-01-04T06:28:04.413Z,3.30
2023-01-04T06:30:50.378Z,3.35
2023-01-04T06:33:36.117Z,4.03
2023-01-04T06:36:21.686Z,3.47
2023-01-04T06:39:08.780Z,3.70
2023-01-04T06:41:56.117Z,4.22
2023-01-04T06:44:45.923Z,3.95
2023-01-04T06:47:31.484Z,4.25
2023-01-04T06:50:17.368Z,4.53
2023-01-04T06:53:03.271Z,4.75
2023-01-04T06:55:49.168Z,5.57
2023-01-04T06:58:34.666Z,5.72
2023-01-04T07:01:21.632Z,4.88
2023-01-04T07:04:07.745Z,5.47
2023-01-04T07:06:53.693Z,5.93
2023-01-04T07:09:39.556Z,6.22
2023-01-04T07:12:25.810Z,6.35
2023-01-04T07:15:37.175Z,6.38
2023-01-04T07:18:19.177Z,6.05
2023-01-04T07:21:06.096Z,5.45
2023-01-04T07:23:51.582Z,5.50
2023-01-04T07:26:37.539Z,5.60
2023-01-04T07:29:22.895Z,5.03
2023-01-04T07:32:13.652Z,4.93
2023-01-04T07:35:01.417Z,4.40
2023-01-04T07:37:52.180Z,4.10
2023-01-04T07:40:55.989Z,4.13
2023-01-04T07:43:42.204Z,4.10
2023-01-04T07:46:28.078Z,4.22
2023-01-04T07:49:17.744Z,3.90
2023-01-04T07:52:05.267Z,3.65
2023-01-04T07:54:50.959Z,4.03
2023-01-04T07:57:36.773Z,3.85
2023-01-04T08:00:22.793Z,3.70
2023-01-04T08:03:08.851Z,3.95
2023-01-04T08:05:54.700Z,4.22
2023-01-04T08:08:42.362Z,4.03
2023-01-04T08:11:28.496Z,4.50
2023-01-04T08:14:14.300Z,4.30
2023-01-04T08:16:59.773Z,3.70
2023-01-04T08:19:46.701Z,4.05
2023-01-04T08:22:32.370Z,3.58
2023-01-04T08:25:19.719Z,3.80
2023-01-04T08:28:05.369Z,3.72
2023-01-04T08:30:51.094Z,3.67
2023-01-04T08:33:38.327Z,3.58
2023-01-04T08:36:27.392Z,3.55
2023-01-04T08:39:13.493Z,3.83
2023-01-04T08:42:14.544Z,3.78
2023-01-04T08:45:07.349Z,3.75
2023-01-04T08:47:52.999Z,4.03
2023-01-04T08:50:38.672Z,3.92
2023-01-04T08:53:24.690Z,4.68
2023-01-04T08:56:11.102Z,4.60
2023-01-04T08:58:57.862Z,5.00
2023-01-04T09:01:44.041Z,5.03
2023-01-04T09:04:29.936Z,5.28
2023-01-04T09:07:15.924Z,5.28
2023-01-04T09:10:01.445Z,5.03
2023-01-04T09:12:47.932Z,4.97
2023-01-04T09:15:36.122Z,5.47
2023-01-04T09:18:30.806Z,5.15
2023-01-04T09:21:20.349Z,5.78
2023-01-04T09:24:06.504Z,5.60
2023-01-04T09:26:52.169Z,5.72
2023-01-04T09:29:38.434Z,5.47
2023-01-04T09:32:26.340Z,5.32
2023-01-04T09:35:12.345Z,5.55
2023-01-04T09:40:54.152Z,5.60
2023-01-04T21:35:08.061Z,4.15
2023-01-04T21:37:54.014Z,3.90
2023-01-04T21:40:41.502Z,4.72
2023-01-04T21:43:29.064Z,4.97
2023-01-04T21:46:15.859Z,4.78
2023-01-04T21:49:02.629Z,4.28
2023-01-04T21:51:48.814Z,3.85
2023-01-04T21:54:34.639Z,4.43
2023-01-04T21:57:20.517Z,4.80
2023-01-04T22:00:09.806Z,4.60
2023-01-04T22:02:55.657Z,4.88
2023-01-04T22:05:41.665Z,4.20
2023-01-04T22:08:27.267Z,4.70
2023-01-04T22:11:14.717Z,4.15
2023-01-04T22:14:00.403Z,3.80
2023-01-04T22:16:47.357Z,3.70
2023-01-04T22:19:33.004Z,3.92
2023-01-04T22:22:18.796Z,3.83
2023-01-04T22:25:04.721Z,4.38
2023-01-04T22:27:50.274Z,3.65
2023-01-04T22:30:40.622Z,4.18
2023-01-04T22:33:27.623Z,4.00
2023-01-04T22:36:22.205Z,4.32
2023-01-04T22:39:08.554Z,3.80
2023-01-04T22:41:54.128Z,3.63
2023-01-04T22:44:40.136Z,4.57
2023-01-04T22:47:25.533Z,4.43
2023-01-04T22:50:12.905Z,4.22
2023-01-04T22:52:58.735Z,4.00
2023-01-04T22:56:17.913Z,4.70
2023-01-04T22:58:53.294Z,3.92
2023-01-04T23:01:40.083Z,4.28
2023-01-04T23:04:25.583Z,4.10
2023-01-04T23:07:13.115Z,4.15
2023-01-04T23:09:59.095Z,4.28
2023-01-04T23:12:44.730Z,4.82
2023-01-04T23:15:30.782Z,4.68
2023-01-04T23:18:16.262Z,3.95
2023-01-04T23:21:02.131Z,4.80
2023-01-04T23:23:50.609Z,4.25
2023-01-04T23:26:36.044Z,3.85
2023-01-04T23:29:22.086Z,4.18
2023-01-04T23:32:08.013Z,4.50
2023-01-04T23:34:53.523Z,3.42
2023-01-04T23:37:39.217Z,3.97
2023-01-04T23:40:26.267Z,4.35
2023-01-04T23:43:11.949Z,4.32
2023-01-04T23:45:57.911Z,4.70
2023-01-04T23:48:44.380Z,4.68
2023-01-04T23:51:30.030Z,4.93
2023-01-04T23:54:15.839Z,4.32
2023-01-04T23:57:03.763Z,4.25
2023-01-04T23:59:49.758Z,4.68
